createdAt,value
2023-11-01T00:01:18.397Z,3.13
2023-11-01T00:03:46.590Z,4.27
2023-11-01T00:06:14.427Z,2.93
2023-11-01T00:08:42.219Z,3.20
2023-11-01T00:11:09.968Z,2.70
2023-11-01T00:13:37.746Z,3.13
2023-11-01T00:16:07.522Z,3.57
2023-11-01T00:18:35.226Z,3.13
2023-11-01T00:21:02.944Z,3.60
2023-11-01T00:23:30.705Z,3.50
2023-11-01T00:25:58.551Z,3.00
2023-11-01T00:28:26.236Z,3.40
2023-11-01T00:30:53.987Z,3.23
2023-11-01T00:33:23.555Z,3.77
2023-11-01T00:35:51.346Z,3.50
2023-11-01T00:38:21.962Z,3.00
2023-11-01T00:40:50.000Z,3.33
2023-11-01T00:43:17.736Z,3.70
2023-11-01T00:45:45.583Z,3.40
2023-11-01T00:48:13.325Z,4.33
2023-11-01T00:50:42.659Z,3.70
2023-11-01T00:53:10.383Z,3.20
2023-11-01T00:55:38.286Z,5.90
2023-11-01T00:58:05.969Z,4.00
2023-11-01T01:00:33.707Z,4.10
2023-11-01T01:03:01.529Z,3.10
2023-11-01T01:05:29.334Z,3.60
2023-11-01T01:07:58.494Z,3.87
2023-11-01T01:10:26.271Z,3.77
2023-11-01T01:12:53.966Z,3.50
2023-11-01T01:15:21.748Z,3.80
2023-11-01T01:17:49.787Z,3.27
2023-11-01T01:20:17.776Z,3.50
2023-11-01T01:22:46.164Z,3.30
2023-11-01T01:25:15.280Z,3.90
2023-11-01T01:27:45.105Z,4.00
2023-11-01T01:30:13.830Z,4.80
2023-11-01T01:32:41.950Z,3.53
2023-11-01T01:35:10.290Z,3.50
2023-11-01T01:37:38.012Z,3.13
2023-11-01T01:40:06.638Z,3.23
2023-11-01T01:42:35.674Z,3.37
2023-11-01T01:45:03.783Z,2.83
2023-11-01T01:47:33.379Z,2.70
2023-11-01T01:50:02.146Z,2.27
2023-11-01T01:52:29.933Z,2.93
2023-11-01T01:54:57.825Z,2.50
2023-11-01T01:57:28.013Z,2.33
2023-11-01T01:59:59.896Z,2.10
2023-11-01T02:02:28.208Z,2.53
2023-11-01T02:04:56.651Z,2.90
2023-11-01T02:07:24.411Z,2.93
2023-11-01T02:09:52.739Z,2.23
2023-11-01T02:12:20.441Z,2.27
2023-11-01T02:14:48.182Z,2.43
2023-11-01T02:17:18.319Z,2.37
2023-11-01T02:19:46.294Z,2.87
2023-11-01T02:22:14.001Z,2.87
2023-11-01T02:24:43.180Z,2.57
2023-11-01T02:27:11.298Z,2.80
2023-11-01T02:29:39.302Z,3.40
2023-11-01T02:32:09.210Z,2.47
2023-11-01T02:34:37.115Z,2.67
2023-11-01T02:37:05.248Z,2.97
2023-11-01T02:39:33.042Z,2.63
2023-11-01T02:42:02.073Z,2.17
2023-11-01T02:44:30.265Z,2.30
2023-11-01T02:46:58.001Z,2.03
2023-11-01T02:49:25.824Z,1.83
2023-11-01T02:51:53.688Z,1.83
2023-11-01T02:54:22.009Z,2.53
2023-11-01T02:56:49.692Z,2.60
2023-11-01T02:59:19.698Z,2.90
2023-11-01T03:01:47.379Z,2.50
2023-11-01T03:04:15.828Z,2.00
2023-11-01T03:06:43.523Z,2.20
2023-11-01T03:09:11.213Z,2.57
2023-11-01T03:11:41.457Z,2.87
2023-11-01T03:14:09.734Z,2.43
2023-11-01T03:16:39.578Z,2.10
2023-11-01T03:19:07.265Z,2.10
2023-11-01T03:21:34.973Z,1.93
2023-11-01T03:24:02.670Z,1.63
2023-11-01T03:26:30.456Z,2.20
2023-11-01T03:28:58.279Z,1.97
2023-11-01T03:31:27.046Z,1.30
2023-11-01T03:33:56.121Z,1.73
2023-11-01T03:36:23.876Z,2.27
2023-11-01T03:38:51.588Z,2.77
2023-11-01T03:41:19.464Z,1.87
2023-11-01T03:43:47.237Z,1.67
2023-11-01T03:46:15.026Z,1.50
2023-11-01T03:48:43.012Z,1.70
2023-11-01T03:51:12.090Z,2.13
2023-11-01T03:53:39.861Z,1.90
2023-11-01T03:56:08.869Z,1.90
2023-11-01T03:58:36.686Z,1.50
2023-11-01T04:01:04.843Z,2.13
2023-11-01T04:03:32.643Z,1.60
2023-11-01T04:06:00.366Z,1.23
2023-11-01T04:08:29.478Z,1.80
2023-11-01T04:10:57.265Z,1.23
2023-11-01T04:13:24.947Z,2.00
2023-11-01T04:15:52.732Z,1.70
2023-11-01T04:18:20.607Z,1.80
2023-11-01T04:20:48.360Z,2.17
2023-11-01T04:23:16.140Z,1.63
2023-11-01T04:25:45.224Z,1.87
2023-11-01T04:28:12.957Z,1.30
2023-11-01T04:30:41.761Z,1.57
2023-11-01T04:33:11.718Z,1.70
2023-11-01T04:35:39.781Z,1.27
2023-11-01T04:38:07.572Z,1.10
2023-11-01T04:40:35.503Z,1.20
2023-11-01T04:43:04.574Z,1.23
2023-11-01T04:45:33.224Z,1.43
2023-11-01T04:48:01.214Z,1.83
2023-11-01T04:50:29.112Z,1.30
2023-11-01T04:52:56.840Z,1.50
2023-11-01T04:55:24.527Z,1.70
2023-11-01T04:57:53.451Z,2.40
2023-11-01T05:00:22.627Z,2.00
2023-11-01T05:02:50.556Z,1.93
2023-11-01T05:05:18.515Z,1.90
2023-11-01T05:07:46.329Z,1.50
2023-11-01T05:10:14.018Z,1.57
2023-11-01T05:12:41.694Z,3.00
2023-11-01T05:15:10.748Z,1.50
2023-11-01T05:17:41.435Z,1.43
2023-11-01T05:20:11.022Z,1.33
2023-11-01T05:22:38.720Z,1.90
2023-11-01T05:25:14.615Z,1.50
2023-11-01T05:27:42.818Z,1.10
2023-11-01T05:30:15.528Z,1.40
2023-11-01T05:32:46.410Z,1.20
2023-11-01T05:35:14.548Z,1.30
2023-11-01T05:37:42.452Z,1.20
2023-11-01T05:40:15.250Z,1.30
2023-11-01T05:42:44.773Z,1.20
2023-11-01T05:45:16.939Z,1.30
2023-11-01T05:47:51.262Z,1.53
2023-11-01T05:50:20.326Z,1.20
2023-11-01T05:52:48.038Z,1.50
2023-11-01T05:55:23.816Z,1.27
2023-11-01T05:57:58.008Z,1.57
2023-11-01T06:00:25.793Z,1.60
2023-11-01T06:02:55.146Z,1.67
2023-11-01T06:05:23.915Z,1.90
2023-11-01T06:07:52.636Z,1.97
2023-11-01T06:10:20.697Z,2.03
2023-11-01T06:12:48.401Z,2.23
2023-11-01T06:15:16.337Z,1.80
2023-11-01T06:17:44.177Z,2.17
2023-11-01T06:20:13.731Z,1.80
2023-11-01T06:22:41.556Z,2.13
2023-11-01T06:25:11.520Z,1.60
2023-11-01T06:27:39.635Z,1.90
2023-11-01T06:30:08.541Z,1.40
2023-11-01T06:32:37.499Z,2.17
2023-11-01T06:35:05.813Z,1.30
2023-11-01T06:37:34.900Z,2.47
2023-11-01T06:40:03.088Z,1.80
2023-11-01T06:42:30.959Z,1.40
2023-11-01T06:44:58.844Z,1.70
2023-11-01T06:47:26.579Z,1.37
2023-11-01T06:49:54.317Z,1.50
2023-11-01T06:52:22.143Z,1.70
2023-11-01T06:54:51.176Z,1.73
2023-11-01T06:57:19.083Z,1.50
2023-11-01T06:59:46.955Z,1.70
2023-11-01T07:02:14.818Z,1.80
2023-11-01T07:04:42.546Z,1.70
2023-11-01T07:07:12.191Z,1.97
2023-11-01T07:09:41.938Z,1.40
2023-11-01T07:12:11.270Z,1.90
2023-11-01T07:14:39.071Z,1.90
2023-11-01T07:17:06.828Z,1.70
2023-11-01T07:19:34.567Z,2.00
2023-11-01T07:22:02.328Z,1.37
2023-11-01T07:24:30.063Z,1.30
2023-11-01T07:26:57.852Z,1.73
2023-11-01T07:29:27.012Z,1.10
2023-11-01T07:31:54.853Z,1.77
2023-11-01T07:34:23.172Z,2.00
2023-11-01T07:36:50.875Z,1.53
2023-11-01T07:39:18.632Z,1.70
2023-11-01T07:41:46.377Z,2.43
2023-11-01T07:44:14.199Z,1.50
2023-11-01T07:46:43.296Z,1.60
2023-11-01T07:49:11.920Z,1.70
2023-11-01T07:51:39.673Z,1.77
2023-11-01T07:54:07.586Z,1.50
2023-11-01T07:56:35.313Z,1.57
2023-11-01T07:59:03.057Z,1.40
2023-11-01T08:01:32.598Z,1.20
2023-11-01T08:04:01.814Z,1.60
2023-11-01T08:06:29.649Z,1.67
2023-11-01T08:08:57.618Z,1.30
2023-11-01T08:11:25.584Z,1.30
2023-11-01T08:13:53.371Z,2.47
2023-11-01T08:16:21.650Z,1.50
2023-11-01T08:18:49.366Z,1.30
2023-11-01T08:21:18.382Z,1.87
2023-11-01T08:23:46.371Z,1.40
2023-11-01T08:26:18.128Z,1.20
2023-11-01T08:28:45.816Z,1.77
2023-11-01T08:31:13.795Z,1.50
2023-11-01T08:33:41.951Z,2.47
2023-11-01T08:36:10.992Z,1.97
2023-11-01T08:38:40.068Z,1.50
2023-11-01T08:41:07.804Z,1.60
2023-11-01T08:43:35.552Z,1.20
2023-11-01T08:46:03.487Z,1.40
2023-11-01T08:48:31.188Z,1.67
2023-11-01T08:50:59.005Z,1.53
2023-11-01T08:53:28.802Z,1.10
2023-11-01T08:55:59.312Z,1.30
2023-11-01T08:58:27.046Z,1.10
2023-11-01T09:00:54.705Z,1.30
2023-11-01T09:03:25.355Z,1.67
2023-11-01T09:05:53.486Z,1.80
2023-11-01T09:08:21.253Z,1.60
2023-11-01T09:10:51.478Z,1.57
2023-11-01T09:13:23.579Z,1.50
2023-11-01T09:15:51.567Z,2.10
2023-11-01T09:18:19.540Z,1.40
2023-11-01T09:20:47.496Z,1.87
2023-11-01T09:23:15.191Z,1.17
2023-11-01T09:25:42.928Z,1.80
2023-11-01T09:28:10.717Z,1.60
2023-11-01T09:30:39.846Z,1.33
2023-11-01T09:33:08.339Z,2.93
2023-11-01T09:35:36.236Z,1.60
2023-11-01T09:38:04.234Z,1.60
2023-11-01T09:40:32.050Z,1.33
2023-11-01T09:43:00.535Z,1.43
2023-11-01T09:45:29.115Z,1.33
2023-11-01T09:47:58.279Z,1.50
2023-11-01T09:50:26.045Z,1.60
2023-11-01T09:52:53.947Z,1.60
2023-11-01T09:55:21.713Z,1.10
2023-11-01T09:57:49.660Z,1.57
2023-11-01T10:00:20.120Z,1.70
2023-11-01T10:02:48.257Z,2.20
2023-11-01T10:05:17.461Z,1.03
2023-11-01T10:07:45.276Z,1.53
2023-11-01T10:10:17.633Z,1.50
2023-11-01T10:12:45.924Z,1.90
2023-11-01T10:15:20.236Z,2.03
2023-11-01T10:17:48.478Z,1.67
2023-11-01T10:20:24.820Z,1.30
2023-11-01T10:22:52.794Z,1.50
2023-11-01T10:25:20.836Z,1.63
2023-11-01T10:27:49.025Z,1.13
2023-11-01T10:30:17.358Z,1.60
2023-11-01T10:32:56.103Z,1.70
2023-11-01T10:35:25.791Z,1.67
2023-11-01T10:37:58.348Z,2.07
2023-11-01T10:40:27.459Z,1.70
2023-11-01T10:42:58.745Z,1.50
2023-11-01T10:45:26.489Z,1.90
2023-11-01T10:47:54.850Z,1.97
2023-11-01T10:50:23.579Z,1.67
2023-11-01T10:52:52.790Z,1.47
2023-11-01T10:55:22.767Z,1.30
2023-11-01T10:57:52.397Z,2.03
2023-11-01T11:00:27.907Z,1.40
2023-11-01T11:03:00.843Z,1.53
2023-11-01T11:05:30.747Z,1.33
2023-11-01T11:08:00.055Z,1.23
2023-11-01T11:10:28.427Z,1.40
2023-11-01T11:13:27.822Z,1.60
2023-11-01T11:16:04.226Z,1.57
2023-11-01T11:18:57.861Z,1.63
2023-11-01T11:21:55.042Z,1.30
2023-11-01T11:24:58.747Z,1.70
2023-11-01T11:28:03.124Z,1.20
2023-11-01T11:31:06.687Z,2.00
2023-11-01T11:33:35.602Z,1.30
2023-11-01T11:36:16.473Z,1.30
2023-11-01T11:38:52.962Z,1.80
2023-11-01T11:41:24.015Z,1.90
2023-11-01T11:44:06.328Z,1.40
2023-11-01T11:46:36.364Z,1.67
2023-11-01T11:49:06.841Z,1.50
2023-11-01T11:51:36.551Z,1.50
2023-11-01T11:54:14.657Z,2.77
2023-11-01T11:56:44.245Z,2.00
2023-11-01T11:59:13.078Z,1.37
2023-11-01T12:01:40.888Z,1.40
2023-11-01T12:04:09.718Z,1.70
2023-11-01T12:06:42.502Z,1.60
2023-11-01T12:09:15.237Z,1.50
2023-11-01T12:11:44.907Z,1.57
2023-11-01T12:14:13.996Z,1.40
2023-11-01T12:16:41.837Z,1.50
2023-11-01T12:19:14.933Z,2.40
2023-11-01T12:21:43.661Z,1.70
2023-11-01T12:24:12.037Z,1.90
2023-11-01T12:27:03.012Z,1.80
2023-11-01T12:29:35.396Z,1.80
2023-11-01T12:32:04.822Z,1.50
2023-11-01T12:34:33.449Z,1.80
2023-11-01T12:37:05.751Z,1.90
2023-11-01T12:39:35.691Z,1.87
2023-11-01T12:42:27.303Z,2.10
2023-11-01T12:44:56.574Z,1.90
2023-11-01T12:47:26.020Z,1.47
2023-11-01T12:49:55.575Z,1.77
2023-11-01T12:52:23.226Z,1.43
2023-11-01T12:54:51.034Z,2.30
2023-11-01T12:57:19.011Z,1.80
2023-11-01T12:59:48.347Z,2.07
2023-11-01T13:02:16.223Z,1.73
2023-11-01T13:04:44.274Z,1.70
2023-11-01T13:07:12.293Z,2.00
2023-11-01T13:09:40.059Z,1.97
2023-11-01T13:12:08.291Z,2.70
2023-11-01T13:14:36.126Z,1.60
2023-11-01T13:17:05.407Z,4.10
2023-11-01T13:19:34.172Z,2.00
2023-11-01T13:22:02.015Z,1.97
2023-11-01T13:24:29.891Z,1.80
2023-11-01T13:26:57.618Z,1.93
2023-11-01T13:29:25.448Z,1.70
2023-11-01T13:31:55.053Z,2.70
2023-11-01T13:34:24.349Z,2.07
2023-11-01T13:36:53.765Z,2.93
2023-11-01T13:39:22.628Z,1.70
2023-11-01T13:41:51.831Z,2.40
2023-11-01T13:44:19.584Z,2.10
2023-11-01T13:46:47.452Z,1.90
2023-11-01T13:49:15.199Z,2.10
2023-11-01T13:51:44.679Z,1.80
2023-11-01T13:54:12.519Z,2.17
2023-11-01T13:56:40.202Z,1.80
2023-11-01T13:59:07.971Z,2.23
2023-11-01T14:01:35.706Z,1.67
2023-11-01T14:04:03.514Z,1.83
2023-11-01T14:06:31.269Z,1.60
2023-11-01T14:09:00.541Z,1.83
2023-11-01T14:11:28.324Z,3.10
2023-11-01T14:13:56.460Z,2.00
2023-11-01T14:16:24.435Z,2.73
2023-11-01T14:18:52.354Z,2.03
2023-11-01T14:21:20.223Z,2.43
2023-11-01T14:23:48.228Z,2.10
2023-11-01T14:26:17.596Z,1.90
2023-11-01T14:28:45.391Z,2.00
2023-11-01T14:31:13.338Z,2.37
2023-11-01T14:33:41.195Z,2.87
2023-11-01T14:36:10.271Z,2.73
2023-11-01T14:38:38.292Z,2.00
2023-11-01T14:41:06.509Z,2.53
2023-11-01T14:43:35.643Z,2.60
2023-11-01T14:46:04.646Z,3.10
2023-11-01T14:48:32.782Z,2.90
2023-11-01T14:51:02.340Z,2.53
2023-11-01T14:53:32.372Z,3.20
2023-11-01T14:56:00.317Z,2.30
2023-11-01T14:58:28.141Z,2.60
2023-11-01T15:00:58.209Z,2.90
2023-11-01T15:03:26.188Z,2.30
2023-11-01T15:05:54.216Z,2.30
2023-11-01T15:08:23.249Z,2.83
2023-11-01T15:10:51.204Z,1.90
2023-11-01T15:13:19.044Z,2.60
2023-11-01T15:15:46.864Z,2.47
2023-11-01T15:18:16.133Z,2.20
2023-11-01T15:20:43.874Z,1.93
2023-11-01T15:23:11.714Z,2.50
2023-11-01T15:25:39.986Z,2.70
2023-11-01T15:28:07.835Z,2.77
2023-11-01T15:30:35.700Z,2.73
2023-11-01T15:33:03.540Z,2.40
2023-11-01T15:35:32.766Z,1.67
2023-11-01T15:38:00.494Z,2.20
2023-11-01T15:40:28.334Z,2.63
2023-11-01T15:42:56.026Z,2.10
2023-11-01T15:45:23.744Z,1.90
2023-11-01T15:47:51.506Z,1.50
2023-11-01T15:50:19.355Z,1.97
2023-11-01T15:52:48.487Z,2.63
2023-11-01T15:55:17.519Z,2.47
2023-11-01T15:57:46.522Z,2.03
2023-11-01T16:00:16.027Z,2.03
2023-11-01T16:02:44.034Z,2.33
2023-11-01T16:05:11.909Z,1.57
2023-11-01T16:07:39.775Z,2.53
2023-11-01T16:10:09.777Z,3.90
2023-11-01T16:12:38.123Z,2.00
2023-11-01T16:15:06.680Z,2.30
2023-11-01T16:17:34.560Z,2.10
2023-11-01T16:20:03.348Z,2.47
2023-11-01T16:22:31.888Z,1.77
2023-11-01T16:24:59.646Z,1.93
2023-11-01T16:27:28.695Z,2.40
2023-11-01T16:29:56.407Z,2.03
2023-11-01T16:32:24.101Z,1.77
2023-11-01T16:34:51.863Z,1.43
2023-11-01T16:37:19.678Z,2.83
2023-11-01T16:39:47.493Z,1.97
2023-11-01T16:42:17.267Z,1.87
2023-11-01T16:44:46.617Z,2.30
2023-11-01T16:47:14.405Z,2.43
2023-11-01T16:49:44.059Z,2.07
2023-11-01T16:52:12.148Z,1.93
2023-11-01T16:54:39.895Z,2.13
2023-11-01T16:57:07.749Z,1.50
2023-11-01T16:59:35.462Z,2.30
2023-11-01T17:02:05.919Z,2.27
2023-11-01T17:04:34.034Z,2.37
2023-11-01T17:07:01.832Z,1.70
2023-11-01T17:09:30.155Z,2.40
2023-11-01T17:11:59.032Z,1.80
2023-11-01T17:14:26.790Z,1.63
2023-11-01T17:16:54.657Z,1.37
2023-11-01T17:19:23.889Z,2.03
2023-11-01T17:21:51.739Z,1.90
2023-11-01T17:24:25.236Z,1.60
2023-11-01T17:26:58.377Z,1.23
2023-11-01T17:29:32.433Z,2.70
2023-11-01T17:32:00.301Z,2.37
2023-11-01T17:34:32.364Z,1.57
2023-11-01T17:37:04.873Z,1.50
2023-11-01T17:39:39.085Z,1.73
2023-11-01T17:42:07.229Z,1.30
2023-11-01T17:44:38.423Z,1.40
2023-11-01T17:47:08.662Z,1.40
2023-11-01T17:49:48.789Z,1.50
2023-11-01T17:52:23.955Z,1.60
2023-11-01T17:54:52.826Z,1.20
2023-11-01T17:57:21.225Z,1.40
2023-11-01T17:59:49.303Z,1.20
2023-11-01T18:02:59.718Z,1.53
2023-11-01T18:05:41.251Z,2.00
2023-11-01T18:08:13.305Z,1.67
2023-11-01T18:10:44.315Z,1.43
2023-11-01T18:13:22.534Z,1.53
2023-11-01T18:15:52.461Z,1.30
2023-11-01T18:18:33.079Z,1.37
2023-11-01T18:21:08.199Z,1.50
2023-11-01T18:23:36.050Z,1.67
2023-11-01T18:26:12.443Z,1.63
2023-11-01T18:28:42.191Z,1.50
2023-11-01T18:31:16.281Z,1.20
2023-11-01T18:33:51.455Z,1.37
2023-11-01T18:36:21.068Z,1.70
2023-11-01T18:38:51.385Z,1.60
2023-11-01T18:41:19.244Z,1.50
2023-11-01T18:43:46.993Z,1.50
2023-11-01T18:46:14.766Z,2.10
2023-11-01T18:48:44.448Z,1.23
2023-11-01T18:51:35.773Z,1.33
2023-11-01T18:54:05.074Z,1.33
2023-11-01T18:56:40.269Z,1.87
2023-11-01T18:59:09.127Z,1.10
2023-11-01T19:01:39.882Z,1.60
2023-11-01T19:04:08.554Z,1.60
2023-11-01T19:06:37.320Z,1.30
2023-11-01T19:09:07.313Z,1.80
2023-11-01T19:11:35.081Z,1.67
2023-11-01T19:14:02.775Z,1.33
2023-11-01T19:16:30.649Z,1.60
2023-11-01T19:18:58.740Z,1.63
2023-11-01T19:21:26.479Z,1.20
2023-11-01T19:23:54.550Z,1.10
2023-11-01T19:26:26.320Z,1.30
2023-11-01T19:28:55.288Z,1.30
2023-11-01T19:31:23.297Z,1.10
2023-11-01T19:33:53.359Z,1.03
2023-11-01T19:36:21.499Z,2.20
2023-11-01T19:38:49.506Z,1.20
2023-11-01T19:41:17.848Z,1.20
2023-11-01T19:43:46.941Z,1.10
2023-11-01T19:46:14.873Z,1.57
2023-11-01T19:48:43.074Z,1.60
2023-11-01T19:51:11.569Z,1.00
2023-11-01T19:53:39.387Z,1.47
2023-11-01T19:56:07.185Z,1.00
2023-11-01T19:58:34.923Z,1.13
2023-11-01T20:01:04.002Z,1.00
2023-11-01T20:03:31.819Z,1.20
2023-11-01T20:05:59.633Z,1.40
2023-11-01T20:08:27.364Z,1.50
2023-11-01T20:10:55.111Z,1.20
2023-11-01T20:13:22.806Z,1.33
2023-11-01T20:15:50.639Z,1.60
2023-11-01T20:18:20.514Z,1.13
2023-11-01T20:20:48.519Z,1.50
2023-11-01T20:23:16.906Z,1.40
2023-11-01T20:25:44.812Z,1.30
2023-11-01T20:28:16.767Z,1.50
2023-11-01T20:30:44.589Z,1.30
2023-11-01T20:33:13.045Z,1.17
2023-11-01T20:35:42.662Z,1.30
2023-11-01T20:38:10.436Z,1.33
2023-11-01T20:40:38.591Z,1.60
2023-11-01T20:43:06.280Z,1.10
2023-11-01T20:45:38.488Z,1.23
2023-11-01T20:50:35.894Z,1.17
2023-11-01T20:53:05.114Z,1.40
2023-11-01T20:55:34.970Z,1.73
2023-11-01T20:58:04.652Z,1.40
2023-11-01T21:00:32.428Z,1.27
2023-11-01T21:03:00.282Z,1.00
2023-11-01T21:05:28.045Z,1.10
2023-11-01T21:07:56.004Z,1.17
2023-11-01T21:10:25.174Z,1.97
2023-11-01T21:12:53.142Z,1.10
2023-11-01T21:15:21.014Z,1.13
2023-11-01T21:17:49.715Z,1.20
2023-11-01T21:20:17.794Z,1.60
2023-11-01T21:22:45.476Z,1.30
2023-11-01T21:25:18.460Z,1.27
2023-11-01T21:27:47.484Z,1.03
2023-11-01T21:30:15.661Z,1.10
2023-11-01T21:32:43.399Z,1.00
2023-11-01T21:35:11.251Z,1.77
2023-11-01T21:37:40.617Z,1.50
2023-11-01T21:40:09.468Z,1.20
2023-11-01T21:42:37.205Z,1.20
2023-11-01T21:45:10.339Z,1.37
2023-11-01T21:47:40.223Z,1.60
2023-11-01T21:50:49.764Z,1.13
2023-11-01T21:53:17.491Z,1.53
2023-11-01T21:55:50.978Z,1.10
2023-11-01T21:58:25.456Z,1.10
2023-11-01T22:00:59.320Z,1.60
2023-11-01T22:03:37.752Z,1.30
2023-11-01T22:06:10.852Z,1.07
2023-11-01T22:08:56.003Z,1.23
2023-11-01T22:11:23.843Z,0.93
2023-11-01T22:13:51.557Z,1.63
2023-11-01T22:16:29.504Z,1.27
2023-11-01T22:18:58.978Z,1.27
2023-11-01T22:21:32.764Z,1.30
2023-11-01T22:24:01.356Z,1.10
2023-11-01T22:26:29.122Z,1.27
2023-11-01T22:29:01.947Z,1.10
2023-11-01T22:31:44.281Z,1.03
2023-11-01T22:34:13.977Z,1.30
2023-11-01T22:36:47.319Z,0.97
2023-11-01T22:39:18.660Z,1.20
2023-11-01T22:41:46.494Z,1.07
2023-11-01T22:44:14.233Z,1.10
2023-11-01T22:46:43.291Z,1.10
2023-11-01T22:49:11.052Z,1.00
2023-11-01T22:51:38.760Z,1.20
2023-11-01T22:54:06.650Z,0.90
2023-11-01T22:56:34.317Z,0.80
2023-11-01T22:59:02.004Z,1.67
2023-11-01T23:01:31.904Z,1.00
2023-11-01T23:04:01.407Z,1.20
2023-11-01T23:06:29.265Z,1.20
2023-11-01T23:08:57.142Z,1.27
2023-11-01T23:11:24.863Z,0.80
2023-11-01T23:13:52.608Z,1.30
2023-11-01T23:16:20.302Z,1.20
2023-11-01T23:18:48.205Z,1.40
2023-11-01T23:21:17.460Z,0.90
2023-11-01T23:23:45.190Z,1.40
2023-11-01T23:26:14.292Z,1.53
2023-11-01T23:29:02.975Z,1.00
2023-11-01T23:31:35.317Z,1.20
2023-11-01T23:34:07.479Z,0.93
2023-11-01T23:36:36.875Z,1.20
2023-11-01T23:39:11.075Z,0.97
2023-11-01T23:41:47.728Z,1.27
2023-11-01T23:44:15.758Z,1.00
2023-11-01T23:46:44.146Z,1.10
2023-11-01T23:49:38.454Z,1.07
2023-11-01T23:52:08.250Z,1.10
2023-11-01T23:54:36.058Z,1.10
2023-11-01T23:57:04.308Z,1.10
2023-11-01T23:59:32.124Z,0.87
